Felipe Yofre, Argentina
Current Conditions -  °F | °C
As of 6:00 PM on Monday 22 Dec 2014 (Local Time) from SARL Reporting Station
Clear Clear  
Wind Chill: 24°   Ceiling: Unl
Heat Index: 24°   Visibility: 6mi
Dew Point:   Wind: 15mph
Humidity: 36%   Direction: 180°S
Pressure: 30.03"   Gusts: NA
Location:  29.1°S, 58.33°W
Report Text: SARL 222100Z 18013KT CAVOK 24/08 Q1017
Loading
Personal Weather Stations






























Interactive Weather Map New forecast layout! Learn more

10-Day Weather Forecast

Advertisements
Track Severe Weather on mobile